createdAt,value
2023-01-09T00:00:41.715Z,7.40
2023-01-09T00:01:41.603Z,6.60
2023-01-09T00:02:41.657Z,4.20
2023-01-09T00:03:41.617Z,5.50
2023-01-09T00:04:41.562Z,5.50
2023-01-09T00:05:41.565Z,6.90
2023-01-09T00:06:41.567Z,6.10
2023-01-09T00:07:41.533Z,6.80
2023-01-09T00:08:41.532Z,5.70
2023-01-09T00:09:41.514Z,6.30
2023-01-09T00:10:41.489Z,5.70
2023-01-09T00:11:41.498Z,4.60
2023-01-09T00:12:41.500Z,5.20
2023-01-09T00:13:41.486Z,5.40
2023-01-09T00:14:41.458Z,5.40
2023-01-09T00:15:41.444Z,5.50
2023-01-09T00:16:41.504Z,7.20
2023-01-09T00:17:41.425Z,6.10
2023-01-09T00:18:41.405Z,7.40
2023-01-09T00:19:41.396Z,5.80
2023-01-09T00:20:41.411Z,8.10
2023-01-09T00:21:41.378Z,6.40
2023-01-09T00:22:41.393Z,7.40
2023-01-09T00:23:41.366Z,6.60
2023-01-09T00:24:41.335Z,7.10
2023-01-09T00:25:42.564Z,9.50
2023-01-09T00:26:41.320Z,5.60
2023-01-09T00:27:41.299Z,7.10
2023-01-09T00:28:41.308Z,7.60
2023-01-09T00:29:41.283Z,7.70
2023-01-09T00:30:41.298Z,6.30
2023-01-09T00:31:41.258Z,8.30
2023-01-09T00:32:41.256Z,7.90
2023-01-09T00:33:41.270Z,9.70
2023-01-09T00:34:41.219Z,8.70
2023-01-09T00:35:41.212Z,6.70
2023-01-09T00:36:41.197Z,7.40
2023-01-09T00:37:41.193Z,6.70
2023-01-09T00:38:41.241Z,6.50
2023-01-09T00:39:41.190Z,9.00
2023-01-09T00:40:41.149Z,6.20
2023-01-09T00:41:41.147Z,5.70
2023-01-09T00:42:41.127Z,4.90
2023-01-09T00:43:41.122Z,7.00
2023-01-09T00:44:41.126Z,7.10
2023-01-09T00:45:41.126Z,8.30
2023-01-09T00:46:41.079Z,5.20
2023-01-09T00:47:41.076Z,6.70
2023-01-09T00:48:41.059Z,7.10
2023-01-09T00:49:41.069Z,8.00
2023-01-09T00:50:41.044Z,7.50
2023-01-09T00:51:41.029Z,8.10
2023-01-09T00:52:41.016Z,5.50
2023-01-09T00:53:41.007Z,8.80
2023-01-09T00:54:41.011Z,7.80
2023-01-09T00:55:40.989Z,6.70
2023-01-09T00:56:40.980Z,7.30
2023-01-09T00:57:40.962Z,9.70
2023-01-09T00:58:40.963Z,7.60
2023-01-09T00:59:40.962Z,7.60
2023-01-09T01:00:40.932Z,9.00
2023-01-09T01:01:41.054Z,8.80
2023-01-09T01:02:40.944Z,6.40
2023-01-09T01:03:40.887Z,9.10
2023-01-09T01:04:40.909Z,7.50
2023-01-09T01:05:40.872Z,8.40
2023-01-09T01:06:40.861Z,6.90
2023-01-09T01:07:40.841Z,7.70
2023-01-09T01:08:40.838Z,8.80
2023-01-09T01:09:40.850Z,8.10
2023-01-09T01:10:40.811Z,6.20
2023-01-09T01:11:40.798Z,7.40
2023-01-09T01:12:40.795Z,7.60
2023-01-09T01:13:40.781Z,7.20
2023-01-09T01:14:40.781Z,13.10
2023-01-09T01:15:40.770Z,7.60
2023-01-09T01:16:40.809Z,6.00
2023-01-09T01:17:40.732Z,7.60
2023-01-09T01:18:40.742Z,9.10
2023-01-09T01:19:40.713Z,8.20
2023-01-09T01:20:40.723Z,7.90
2023-01-09T01:21:40.686Z,5.50
2023-01-09T01:22:40.677Z,8.10
2023-01-09T01:23:40.668Z,5.60
2023-01-09T01:24:40.655Z,8.60
2023-01-09T01:25:40.674Z,7.00
2023-01-09T01:26:40.640Z,5.80
2023-01-09T01:27:40.621Z,8.70
2023-01-09T01:28:40.621Z,7.30
2023-01-09T01:29:40.598Z,5.90
2023-01-09T01:30:40.634Z,5.80
2023-01-09T01:31:40.596Z,5.80
2023-01-09T01:32:40.590Z,6.10
2023-01-09T01:33:40.552Z,7.80
2023-01-09T01:34:40.546Z,6.60
2023-01-09T01:35:40.532Z,8.90
2023-01-09T01:36:40.519Z,6.90
2023-01-09T01:37:40.535Z,7.50
2023-01-09T01:38:40.495Z,5.60
2023-01-09T01:39:40.483Z,5.10
2023-01-09T01:40:40.487Z,4.90
2023-01-09T01:41:40.478Z,5.60
2023-01-09T01:42:40.473Z,5.00
2023-01-09T01:43:40.438Z,4.50
2023-01-09T01:44:40.433Z,4.90
2023-01-09T01:45:40.453Z,5.40
2023-01-09T01:46:40.408Z,3.40
2023-01-09T01:47:40.420Z,4.20
2023-01-09T01:48:40.380Z,6.70
2023-01-09T01:49:40.372Z,4.70
2023-01-09T01:50:40.361Z,4.40
2023-01-09T01:51:40.345Z,5.90
2023-01-09T01:52:40.359Z,4.60
2023-01-09T01:53:40.322Z,5.40
2023-01-09T01:54:40.311Z,4.00
2023-01-09T01:55:40.317Z,4.40
2023-01-09T01:56:40.285Z,4.50
2023-01-09T01:57:40.304Z,5.10
2023-01-09T01:58:40.268Z,4.40
2023-01-09T01:59:40.255Z,3.20
2023-01-09T02:00:40.251Z,3.80
2023-01-09T02:01:40.308Z,2.50
2023-01-09T02:02:40.291Z,4.40
2023-01-09T02:03:40.240Z,3.80
2023-01-09T02:04:40.206Z,3.70
2023-01-09T02:05:40.202Z,5.50
2023-01-09T02:06:40.173Z,3.50
2023-01-09T02:07:40.186Z,5.20
2023-01-09T02:08:40.184Z,5.30
2023-01-09T02:09:40.144Z,4.70
2023-01-09T02:10:40.131Z,5.30
2023-01-09T02:11:40.121Z,4.00
2023-01-09T02:12:40.126Z,5.70
2023-01-09T02:13:40.101Z,4.50
2023-01-09T02:14:40.084Z,5.30
2023-01-09T02:15:40.111Z,5.50
2023-01-09T02:16:40.060Z,5.80
2023-01-09T02:17:40.072Z,5.00
2023-01-09T02:18:40.038Z,6.70
2023-01-09T02:19:40.027Z,6.10
2023-01-09T02:20:40.026Z,6.00
2023-01-09T02:21:40.010Z,7.70
2023-01-09T02:22:40.022Z,7.10
2023-01-09T02:23:39.997Z,7.00
2023-01-09T02:24:39.965Z,6.60
2023-01-09T02:25:39.962Z,6.40
2023-01-09T02:26:39.948Z,6.40
2023-01-09T02:27:39.961Z,6.90
2023-01-09T02:28:39.933Z,7.50
2023-01-09T02:29:39.924Z,7.20
2023-01-09T02:30:39.897Z,7.40
2023-01-09T02:31:39.952Z,6.20
2023-01-09T02:32:39.907Z,7.70
2023-01-09T02:33:39.869Z,5.30
2023-01-09T02:34:39.864Z,6.00
2023-01-09T02:35:39.850Z,6.40
2023-01-09T02:36:39.829Z,5.50
2023-01-09T02:37:39.847Z,4.90
2023-01-09T02:38:39.808Z,5.20
2023-01-09T02:39:39.804Z,6.10
2023-01-09T02:40:39.790Z,4.50
2023-01-09T02:41:39.782Z,4.90
2023-01-09T02:42:39.786Z,4.80
2023-01-09T02:43:39.755Z,5.00
2023-01-09T02:44:39.737Z,4.20
2023-01-09T02:45:39.761Z,5.80
2023-01-09T02:46:39.725Z,5.20
2023-01-09T02:47:39.745Z,5.60
2023-01-09T02:48:39.702Z,6.20
2023-01-09T02:49:39.700Z,6.70
2023-01-09T02:50:39.680Z,7.10
2023-01-09T02:51:39.665Z,8.00
2023-01-09T02:52:39.672Z,7.00
2023-01-09T02:53:39.643Z,7.70
2023-01-09T02:54:39.638Z,7.00
2023-01-09T02:55:39.619Z,7.00
2023-01-09T02:56:39.625Z,7.00
2023-01-09T02:57:39.614Z,7.70
2023-01-09T02:58:39.595Z,7.90
2023-01-09T02:59:39.569Z,8.50
2023-01-09T03:00:39.572Z,8.40
2023-01-09T03:01:39.626Z,7.30
2023-01-09T03:02:39.584Z,8.50
2023-01-09T03:03:39.526Z,7.50
2023-01-09T03:04:39.528Z,5.90
2023-01-09T03:05:39.511Z,6.80
2023-01-09T03:06:39.494Z,6.90
2023-01-09T03:07:39.503Z,6.80
2023-01-09T03:08:39.477Z,7.80
2023-01-09T03:09:39.458Z,6.80
2023-01-09T03:10:39.451Z,6.80
2023-01-09T03:11:39.434Z,8.10
2023-01-09T03:12:39.453Z,7.10
2023-01-09T03:13:39.415Z,7.00
2023-01-09T03:14:39.406Z,8.30
2023-01-09T03:15:39.395Z,5.30
2023-01-09T03:16:39.443Z,5.00
2023-01-09T03:17:39.392Z,6.70
2023-01-09T03:18:39.353Z,6.70
2023-01-09T03:19:39.357Z,7.00
2023-01-09T03:20:39.334Z,5.70
2023-01-09T03:21:39.326Z,4.50
2023-01-09T03:22:39.329Z,7.60
2023-01-09T03:23:39.311Z,6.60
2023-01-09T03:24:39.285Z,5.80
2023-01-09T03:25:39.287Z,6.90
2023-01-09T03:26:39.261Z,5.40
2023-01-09T03:27:39.284Z,7.20
2023-01-09T03:28:39.242Z,5.90
2023-01-09T03:29:39.235Z,7.50
2023-01-09T03:30:39.220Z,7.20
2023-01-09T03:31:39.254Z,9.40
2023-01-09T03:32:39.222Z,8.30
2023-01-09T03:33:39.192Z,6.80
2023-01-09T03:34:39.176Z,10.90
2023-01-09T03:35:39.169Z,8.90
2023-01-09T03:36:39.152Z,9.00
2023-01-09T03:37:39.169Z,9.10
2023-01-09T03:38:39.133Z,9.90
2023-01-09T03:39:39.126Z,7.50
2023-01-09T03:40:39.103Z,9.10
2023-01-09T03:41:39.103Z,9.50
2023-01-09T03:42:39.110Z,11.90
2023-01-09T03:43:39.076Z,10.80
2023-01-09T03:44:39.059Z,13.10
2023-01-09T03:45:39.129Z,11.80
2023-01-09T03:46:39.037Z,12.00
2023-01-09T03:47:39.062Z,12.30
2023-01-09T03:48:39.030Z,13.90
2023-01-09T03:49:39.007Z,12.70
2023-01-09T03:50:39.006Z,14.90
2023-01-09T03:51:38.991Z,11.00
2023-01-09T03:52:38.991Z,12.40
2023-01-09T03:53:38.973Z,13.40
2023-01-09T03:54:38.956Z,13.00
2023-01-09T03:55:38.942Z,13.50
2023-01-09T03:56:38.933Z,13.40
2023-01-09T03:57:38.943Z,9.40
2023-01-09T03:58:38.913Z,11.00
2023-01-09T03:59:38.894Z,11.50
2023-01-09T04:00:38.901Z,11.40
2023-01-09T04:01:38.924Z,10.10
2023-01-09T04:02:38.891Z,12.40
2023-01-09T04:03:38.864Z,10.90
2023-01-09T04:04:38.847Z,11.50
2023-01-09T04:05:38.844Z,11.70
2023-01-09T04:06:38.817Z,10.90
2023-01-09T04:07:38.823Z,11.10
2023-01-09T04:08:38.797Z,10.50
2023-01-09T04:09:38.786Z,10.70
2023-01-09T04:10:38.775Z,10.60
2023-01-09T04:11:38.754Z,11.80
2023-01-09T04:12:38.798Z,11.00
2023-01-09T04:13:38.744Z,8.60
2023-01-09T04:14:38.727Z,9.50
2023-01-09T04:15:38.708Z,10.80
2023-01-09T04:16:38.736Z,10.00
2023-01-09T04:17:38.708Z,10.00
2023-01-09T04:18:38.683Z,9.90
2023-01-09T04:19:38.669Z,10.70
2023-01-09T04:20:38.663Z,9.50
2023-01-09T04:21:38.637Z,8.60
2023-01-09T04:22:38.661Z,11.60
2023-01-09T04:23:38.626Z,11.70
2023-01-09T04:24:38.612Z,9.20
2023-01-09T04:25:38.593Z,11.00
2023-01-09T04:26:38.607Z,9.70
2023-01-09T04:27:38.597Z,11.30
2023-01-09T04:28:38.567Z,9.70
2023-01-09T04:29:38.555Z,13.20
2023-01-09T04:30:38.560Z,11.70
2023-01-09T04:31:38.561Z,12.10
2023-01-09T04:32:38.550Z,10.30
2023-01-09T04:33:38.506Z,9.60
2023-01-09T04:34:38.509Z,13.80
2023-01-09T04:35:38.487Z,16.00
2023-01-09T04:36:38.478Z,13.90
2023-01-09T04:37:38.490Z,12.50
2023-01-09T04:38:38.460Z,11.30
2023-01-09T04:39:38.440Z,12.50
2023-01-09T04:40:38.438Z,13.80
2023-01-09T04:41:38.417Z,10.80
2023-01-09T04:42:38.433Z,14.20
2023-01-09T04:43:38.392Z,12.60
2023-01-09T04:44:38.389Z,11.30
2023-01-09T04:45:38.411Z,12.20
2023-01-09T04:46:38.366Z,11.20
2023-01-09T04:47:38.385Z,12.90
2023-01-09T04:48:38.354Z,13.60
2023-01-09T04:49:38.336Z,12.40
2023-01-09T04:50:38.315Z,11.40
2023-01-09T04:51:38.307Z,14.70
2023-01-09T04:52:39.153Z,12.50
2023-01-09T04:53:38.283Z,12.50
2023-01-09T04:54:38.272Z,14.00
2023-01-09T04:55:38.263Z,12.80
2023-01-09T04:56:38.256Z,11.70
2023-01-09T04:57:38.271Z,15.90
2023-01-09T04:58:38.223Z,12.90
2023-01-09T04:59:38.217Z,13.10
2023-01-09T05:00:38.204Z,10.90
2023-01-09T05:01:38.272Z,13.30
2023-01-09T05:02:38.180Z,16.50
2023-01-09T05:03:38.215Z,15.50
2023-01-09T05:04:38.197Z,13.20
2023-01-09T05:05:38.151Z,10.20
2023-01-09T05:06:38.135Z,13.10
2023-01-09T05:07:38.126Z,13.90
2023-01-09T05:08:38.144Z,14.10
2023-01-09T05:09:38.116Z,14.50
2023-01-09T05:10:38.088Z,14.70
2023-01-09T05:11:38.081Z,12.70
2023-01-09T05:12:38.070Z,14.50
2023-01-09T05:13:38.059Z,12.90
2023-01-09T05:14:38.074Z,15.60
2023-01-09T05:15:38.038Z,12.70
2023-01-09T05:16:38.033Z,16.10
2023-01-09T05:17:38.053Z,12.40
2023-01-09T05:18:38.004Z,14.20
2023-01-09T05:19:38.015Z,14.20
2023-01-09T05:20:38.005Z,11.40
2023-01-09T05:21:37.963Z,13.80
2023-01-09T05:22:37.953Z,13.80
2023-01-09T05:23:37.945Z,14.10
2023-01-09T05:24:37.932Z,13.00
2023-01-09T05:25:37.922Z,11.90
2023-01-09T05:26:37.942Z,11.60
2023-01-09T05:27:37.903Z,11.60
2023-01-09T05:28:37.902Z,11.70
2023-01-09T05:29:37.874Z,12.50
2023-01-09T05:30:37.861Z,13.80
2023-01-09T05:31:37.888Z,11.10
2023-01-09T05:32:37.863Z,15.10
2023-01-09T05:33:37.835Z,10.50
2023-01-09T05:34:37.816Z,13.10
2023-01-09T05:35:37.812Z,12.50
2023-01-09T05:36:37.801Z,11.60
2023-01-09T05:37:37.820Z,16.10
2023-01-09T05:38:37.769Z,14.10
2023-01-09T05:39:37.771Z,13.90
2023-01-09T05:40:40.313Z,15.50
2023-01-09T05:41:37.747Z,15.90
2023-01-09T05:42:37.731Z,14.90
2023-01-09T05:43:37.744Z,16.40
2023-01-09T05:44:37.707Z,16.90
2023-01-09T05:45:37.749Z,16.80
2023-01-09T05:46:37.679Z,16.10
2023-01-09T05:47:37.677Z,15.30
2023-01-09T05:48:37.695Z,16.50
2023-01-09T05:49:37.651Z,17.90
2023-01-09T05:50:37.641Z,19.30
2023-01-09T05:51:37.631Z,19.80
2023-01-09T05:52:37.612Z,17.40
2023-01-09T05:53:37.609Z,18.50
2023-01-09T05:54:37.624Z,20.40
2023-01-09T05:55:37.588Z,22.30
2023-01-09T05:56:37.570Z,22.20
2023-01-09T05:57:37.555Z,23.30
2023-01-09T05:58:37.552Z,20.90
2023-01-09T05:59:37.542Z,24.00
2023-01-09T06:00:37.558Z,26.40
2023-01-09T06:01:37.517Z,22.20
2023-01-09T06:02:37.669Z,20.80
2023-01-09T06:03:37.486Z,22.70
2023-01-09T06:04:37.480Z,22.80
2023-01-09T06:05:37.463Z,20.80
2023-01-09T06:06:37.480Z,22.40
2023-01-09T06:07:37.440Z,23.20
2023-01-09T06:08:37.458Z,21.00
2023-01-09T06:09:37.427Z,20.60
2023-01-09T06:10:37.414Z,19.50
2023-01-09T06:11:37.433Z,19.90
2023-01-09T06:12:37.397Z,21.50
2023-01-09T06:13:37.395Z,21.00
2023-01-09T06:14:37.366Z,22.50
2023-01-09T06:15:37.439Z,21.90
2023-01-09T06:16:37.384Z,21.10
2023-01-09T06:17:37.345Z,15.90
2023-01-09T06:18:37.326Z,20.50
2023-01-09T06:19:37.313Z,18.20
2023-01-09T06:20:37.389Z,19.50
2023-01-09T06:21:37.285Z,16.80
2023-01-09T06:22:37.315Z,18.80
2023-01-09T06:23:37.261Z,15.80
2023-01-09T06:24:37.260Z,19.10
2023-01-09T06:25:37.239Z,17.40
2023-01-09T06:26:37.238Z,16.80
2023-01-09T06:27:37.221Z,18.60
2023-01-09T06:28:37.234Z,16.70
2023-01-09T06:29:37.192Z,15.70
2023-01-09T06:30:37.185Z,15.70
2023-01-09T06:31:37.167Z,17.40
2023-01-09T06:32:37.170Z,16.20
2023-01-09T06:33:37.206Z,17.70
2023-01-09T06:34:37.138Z,18.60
2023-01-09T06:35:37.123Z,15.70
2023-01-09T06:36:37.124Z,16.30
2023-01-09T06:37:37.104Z,13.40
2023-01-09T06:38:37.102Z,15.20
2023-01-09T06:39:37.104Z,18.50
2023-01-09T06:40:37.071Z,17.80
2023-01-09T06:41:37.053Z,15.50
2023-01-09T06:42:37.079Z,15.00
2023-01-09T06:43:37.035Z,15.20
2023-01-09T06:44:37.064Z,14.10
2023-01-09T06:45:37.027Z,12.00
2023-01-09T06:46:37.004Z,12.20
2023-01-09T06:47:36.985Z,12.20
2023-01-09T06:48:36.989Z,14.80
2023-01-09T06:49:36.976Z,11.90
2023-01-09T06:50:36.988Z,11.40
2023-01-09T06:51:36.951Z,13.20
2023-01-09T06:52:36.943Z,10.30
2023-01-09T06:53:38.042Z,11.90
2023-01-09T06:54:36.938Z,12.50
2023-01-09T06:55:36.957Z,12.40
2023-01-09T06:56:36.893Z,12.30
2023-01-09T06:57:36.887Z,12.70
2023-01-09T06:58:36.870Z,16.30
2023-01-09T06:59:36.860Z,12.90
2023-01-09T07:00:36.844Z,11.90
2023-01-09T07:01:36.986Z,9.90
2023-01-09T07:02:36.827Z,14.70
2023-01-09T07:03:36.817Z,10.00
2023-01-09T07:04:36.800Z,10.60
2023-01-09T07:05:36.792Z,11.70
2023-01-09T07:06:36.776Z,12.40
2023-01-09T07:07:36.796Z,11.40
2023-01-09T07:08:36.755Z,10.60
2023-01-09T07:09:36.753Z,11.20
2023-01-09T07:10:36.761Z,10.50
2023-01-09T07:11:36.721Z,10.70
2023-01-09T07:12:36.715Z,10.80
2023-01-09T07:13:36.728Z,11.80
2023-01-09T07:14:36.696Z,9.30
2023-01-09T07:15:36.675Z,11.40
2023-01-09T07:16:36.663Z,8.00
2023-01-09T07:17:36.730Z,12.60
2023-01-09T07:18:36.644Z,6.80
2023-01-09T07:19:36.659Z,8.70
2023-01-09T07:20:36.616Z,10.90
2023-01-09T07:21:36.613Z,10.80
2023-01-09T07:22:36.602Z,7.80
2023-01-09T07:23:36.800Z,9.40
2023-01-09T07:24:36.594Z,9.70
2023-01-09T07:25:36.572Z,11.90
2023-01-09T07:26:36.545Z,8.00
2023-01-09T07:27:36.543Z,11.30
2023-01-09T07:28:36.525Z,12.70
2023-01-09T07:29:36.567Z,9.50
2023-01-09T07:30:36.508Z,10.40
2023-01-09T07:31:36.578Z,8.30
2023-01-09T07:32:36.487Z,8.20
2023-01-09T07:33:36.470Z,9.80
2023-01-09T07:34:36.491Z,13.60
2023-01-09T07:35:36.466Z,9.80
2023-01-09T07:36:36.438Z,11.00
2023-01-09T07:37:36.420Z,10.70
2023-01-09T07:38:37.519Z,13.50
2023-01-09T07:39:36.437Z,12.70
2023-01-09T07:40:36.401Z,8.60
2023-01-09T07:41:36.423Z,9.10
2023-01-09T07:42:36.371Z,7.80
2023-01-09T07:43:36.368Z,10.50
2023-01-09T07:44:36.350Z,10.20
2023-01-09T07:45:36.370Z,11.70
2023-01-09T07:46:36.386Z,10.20
2023-01-09T07:47:36.316Z,9.40
2023-01-09T07:48:36.321Z,9.00
2023-01-09T07:49:36.290Z,9.00
2023-01-09T07:50:36.288Z,10.70
2023-01-09T07:51:36.296Z,9.30
2023-01-09T07:52:36.262Z,10.90
2023-01-09T07:53:36.266Z,8.80
2023-01-09T07:54:36.233Z,9.60
2023-01-09T07:55:36.232Z,9.70
2023-01-09T07:56:36.240Z,9.80
2023-01-09T07:57:36.232Z,10.40
2023-01-09T07:58:36.190Z,10.40
2023-01-09T07:59:36.195Z,11.20
2023-01-09T08:00:36.185Z,7.20
2023-01-09T08:01:36.357Z,8.00
2023-01-09T08:02:36.225Z,12.30
2023-01-09T08:03:36.159Z,9.60
2023-01-09T08:04:36.124Z,10.40
2023-01-09T08:05:36.123Z,8.90
2023-01-09T08:06:36.101Z,9.90
2023-01-09T08:07:36.108Z,6.30
2023-01-09T08:08:36.076Z,11.80
2023-01-09T08:09:36.103Z,10.40
2023-01-09T08:10:36.054Z,9.90
2023-01-09T08:11:36.046Z,10.30
2023-01-09T08:12:36.037Z,12.20
2023-01-09T08:13:36.038Z,12.30
2023-01-09T08:14:36.058Z,11.20
2023-01-09T08:15:36.078Z,10.00
2023-01-09T08:16:35.986Z,10.00
2023-01-09T08:17:35.976Z,11.10
2023-01-09T08:18:35.965Z,10.30
2023-01-09T08:19:35.959Z,9.70
2023-01-09T08:20:35.967Z,8.90
2023-01-09T08:21:35.937Z,9.50
2023-01-09T08:22:35.919Z,11.00
2023-01-09T08:23:35.914Z,11.90
2023-01-09T08:24:35.899Z,9.70
2023-01-09T08:25:35.921Z,9.10
2023-01-09T08:26:35.883Z,7.70
2023-01-09T08:27:35.870Z,11.20
2023-01-09T08:28:35.877Z,10.00
2023-01-09T08:29:35.844Z,8.30
2023-01-09T08:30:35.825Z,8.70
2023-01-09T08:31:35.941Z,9.50
2023-01-09T08:32:35.805Z,7.60
2023-01-09T08:33:35.798Z,9.80
2023-01-09T08:34:35.817Z,12.20
2023-01-09T08:35:35.777Z,9.00
2023-01-09T08:36:35.760Z,11.00
2023-01-09T08:37:35.787Z,10.40
2023-01-09T08:38:35.745Z,11.60
2023-01-09T08:39:35.733Z,8.00
2023-01-09T08:40:35.717Z,7.80
2023-01-09T08:41:35.712Z,10.00
2023-01-09T08:42:35.717Z,9.60
2023-01-09T08:43:35.691Z,8.40
2023-01-09T08:44:35.673Z,7.60
2023-01-09T08:45:35.665Z,12.70
2023-01-09T08:46:35.676Z,11.50
2023-01-09T08:47:35.668Z,12.40
2023-01-09T08:48:35.625Z,9.00
2023-01-09T08:49:35.621Z,10.90
2023-01-09T08:50:35.612Z,9.10
2023-01-09T08:51:35.599Z,13.20
2023-01-09T08:52:35.579Z,8.70
2023-01-09T08:53:35.620Z,8.10
2023-01-09T08:54:35.572Z,7.80
2023-01-09T08:55:35.563Z,8.40
2023-01-09T08:56:35.542Z,8.10
2023-01-09T08:57:35.548Z,7.80
2023-01-09T08:58:35.533Z,9.80
2023-01-09T08:59:35.528Z,9.30
2023-01-09T09:00:35.491Z,11.90
2023-01-09T09:01:35.563Z,8.20
2023-01-09T09:02:35.508Z,6.80
2023-01-09T09:03:35.458Z,8.90
2023-01-09T09:04:35.453Z,10.70
2023-01-09T09:05:35.457Z,9.40
2023-01-09T09:06:35.436Z,10.70
2023-01-09T09:07:35.415Z,10.40
2023-01-09T09:08:35.406Z,12.10
2023-01-09T09:09:35.394Z,9.30
2023-01-09T09:10:35.415Z,10.40
2023-01-09T09:11:35.364Z,10.60
2023-01-09T09:12:35.358Z,10.00
2023-01-09T09:13:35.353Z,11.20
2023-01-09T09:14:35.330Z,10.20
2023-01-09T09:15:35.321Z,7.60
2023-01-09T09:16:35.352Z,8.40
2023-01-09T09:17:35.358Z,9.70
2023-01-09T09:18:35.285Z,8.80
2023-01-09T09:19:35.269Z,13.30
2023-01-09T09:20:35.310Z,7.40
2023-01-09T09:21:35.256Z,7.60
2023-01-09T09:22:35.465Z,7.50
2023-01-09T09:23:35.404Z,8.80
2023-01-09T09:24:35.219Z,8.60
2023-01-09T09:25:35.207Z,6.70
2023-01-09T09:26:35.197Z,6.90
2023-01-09T09:27:35.177Z,7.90
2023-01-09T09:28:35.211Z,9.50
2023-01-09T09:29:35.166Z,9.50
2023-01-09T09:30:35.146Z,10.40
2023-01-09T09:31:35.194Z,8.20
2023-01-09T09:32:35.127Z,11.20
2023-01-09T09:33:35.133Z,12.60
2023-01-09T09:34:35.208Z,9.30
2023-01-09T09:35:35.127Z,8.80
2023-01-09T09:36:35.150Z,7.80
2023-01-09T09:37:35.087Z,5.90
2023-01-09T09:38:35.061Z,10.50
2023-01-09T09:39:35.047Z,7.60
2023-01-09T09:40:35.058Z,8.00
2023-01-09T09:41:35.016Z,9.90
2023-01-09T09:42:35.012Z,8.10
2023-01-09T09:43:34.995Z,7.10
2023-01-09T09:44:34.990Z,8.50
2023-01-09T09:45:34.980Z,6.90
2023-01-09T09:46:35.024Z,7.80
2023-01-09T09:47:34.979Z,8.50
2023-01-09T09:48:35.000Z,9.10
2023-01-09T09:49:35.075Z,8.00
2023-01-09T09:50:34.939Z,9.50
2023-01-09T09:51:34.944Z,6.90
2023-01-09T09:52:34.908Z,9.40
2023-01-09T09:53:34.962Z,9.00
2023-01-09T09:54:34.922Z,7.30
2023-01-09T09:55:34.992Z,10.60
2023-01-09T09:56:35.253Z,10.10
2023-01-09T09:57:34.889Z,9.50
2023-01-09T09:58:34.963Z,8.50
2023-01-09T09:59:34.909Z,9.80
2023-01-09T10:00:34.832Z,9.50
2023-01-09T10:01:34.828Z,7.40
2023-01-09T10:02:34.824Z,9.50
2023-01-09T10:03:34.927Z,10.30
2023-01-09T10:04:34.775Z,10.00
2023-01-09T10:05:34.766Z,10.70
2023-01-09T10:06:34.759Z,9.10
2023-01-09T10:07:34.731Z,9.20
2023-01-09T10:08:34.789Z,12.40
2023-01-09T10:09:34.707Z,7.80
2023-01-09T10:10:34.691Z,12.70
2023-01-09T10:11:34.728Z,9.80
2023-01-09T10:12:34.743Z,10.20
2023-01-09T10:13:34.663Z,13.50
2023-01-09T10:14:34.733Z,8.70
2023-01-09T10:15:36.517Z,11.00
2023-01-09T10:16:34.619Z,8.70
2023-01-09T10:17:34.626Z,10.20
2023-01-09T10:18:34.668Z,10.60
2023-01-09T10:19:34.595Z,8.40
2023-01-09T10:20:34.595Z,10.20
2023-01-09T10:21:34.576Z,9.30
2023-01-09T10:22:34.550Z,9.90
2023-01-09T10:23:34.998Z,7.70
2023-01-09T10:24:34.616Z,9.70
2023-01-09T10:25:34.554Z,10.00
2023-01-09T10:26:34.510Z,11.50
2023-01-09T10:27:34.501Z,9.90
2023-01-09T10:28:34.510Z,7.30
2023-01-09T10:29:34.884Z,11.30
2023-01-09T10:30:34.469Z,12.60
2023-01-09T10:31:34.485Z,9.40
2023-01-09T10:32:34.476Z,9.70
2023-01-09T10:33:34.433Z,10.80
2023-01-09T10:34:34.465Z,8.70
2023-01-09T10:35:46.997Z,12.00
2023-01-09T10:36:34.443Z,8.80
2023-01-09T10:37:34.512Z,10.30
2023-01-09T10:38:34.582Z,12.50
2023-01-09T10:39:34.363Z,11.30
2023-01-09T10:40:34.523Z,11.00
2023-01-09T10:41:34.340Z,10.20
2023-01-09T10:42:34.356Z,10.40
2023-01-09T10:43:34.339Z,9.90
2023-01-09T10:44:34.337Z,9.60
2023-01-09T10:45:34.319Z,10.10
2023-01-09T10:46:37.229Z,11.70
2023-01-09T10:47:34.368Z,12.70
2023-01-09T10:48:34.287Z,12.70
2023-01-09T10:49:34.253Z,12.10
2023-01-09T10:50:34.248Z,11.10
2023-01-09T10:51:34.235Z,13.30
2023-01-09T10:52:34.242Z,13.40
2023-01-09T10:53:34.214Z,9.10
2023-01-09T10:54:34.221Z,8.90
2023-01-09T10:55:34.183Z,10.80
2023-01-09T10:56:34.180Z,13.30
2023-01-09T10:57:34.276Z,9.30
2023-01-09T10:58:34.138Z,13.20
2023-01-09T10:59:34.169Z,10.20
2023-01-09T11:00:34.126Z,10.50
2023-01-09T11:01:34.124Z,10.10
2023-01-09T11:02:34.093Z,11.80
2023-01-09T11:03:34.185Z,11.00
2023-01-09T11:04:34.098Z,10.10
2023-01-09T11:05:34.117Z,10.60
2023-01-09T11:06:34.054Z,13.50
2023-01-09T11:07:34.213Z,10.20
2023-01-09T11:08:34.064Z,10.70
2023-01-09T11:09:34.097Z,11.80
2023-01-09T11:10:34.025Z,10.70
2023-01-09T11:11:34.082Z,12.20
2023-01-09T11:12:34.057Z,9.90
2023-01-09T11:13:33.997Z,13.00
2023-01-09T11:14:33.996Z,12.80
2023-01-09T11:15:34.030Z,11.30
2023-01-09T11:16:34.021Z,10.40
2023-01-09T11:17:33.939Z,10.50
2023-01-09T11:18:34.477Z,10.20
2023-01-09T11:19:34.618Z,10.40
2023-01-09T11:20:33.938Z,10.20
2023-01-09T11:21:33.908Z,7.60
2023-01-09T11:22:33.909Z,10.00
2023-01-09T11:23:33.911Z,9.00
2023-01-09T11:24:33.881Z,10.90
2023-01-09T11:25:33.888Z,10.40
2023-01-09T11:26:34.824Z,9.10
2023-01-09T11:27:33.886Z,7.90
2023-01-09T11:28:33.842Z,10.10
2023-01-09T11:29:33.884Z,8.30
2023-01-09T11:30:33.836Z,6.40
2023-01-09T11:31:33.870Z,8.90
2023-01-09T11:32:33.769Z,8.80
2023-01-09T11:33:33.859Z,7.40
2023-01-09T11:34:33.816Z,9.10
2023-01-09T11:35:34.770Z,9.60
2023-01-09T11:36:33.916Z,8.10
2023-01-09T11:37:33.795Z,8.20
2023-01-09T11:38:33.761Z,9.40
2023-01-09T11:39:33.712Z,7.20
2023-01-09T11:40:33.720Z,11.10
2023-01-09T11:41:33.674Z,9.50
2023-01-09T11:42:33.658Z,9.20
2023-01-09T11:43:33.652Z,8.90
2023-01-09T11:44:33.665Z,8.80
2023-01-09T11:45:33.660Z,7.60
2023-01-09T11:46:33.635Z,6.70
2023-01-09T11:47:33.588Z,5.90
2023-01-09T11:48:33.575Z,7.40
2023-01-09T11:49:33.615Z,8.30
2023-01-09T11:50:33.588Z,7.50
2023-01-09T11:51:33.576Z,8.40
2023-01-09T11:52:33.556Z,8.40
2023-01-09T11:53:33.551Z,8.20
2023-01-09T11:54:33.515Z,7.80
2023-01-09T11:55:41.795Z,7.50
2023-01-09T11:56:33.502Z,7.70
2023-01-09T11:57:33.497Z,7.20
2023-01-09T11:58:33.501Z,8.00
2023-01-09T11:59:33.460Z,7.60
2023-01-09T12:00:33.445Z,9.30
2023-01-09T12:01:33.467Z,8.50
2023-01-09T12:02:33.434Z,8.40
2023-01-09T12:03:33.428Z,7.10
2023-01-09T12:04:33.441Z,6.30
2023-01-09T12:05:33.393Z,10.40
2023-01-09T12:06:33.395Z,5.90
2023-01-09T12:07:33.367Z,5.80
2023-01-09T12:08:33.361Z,8.30
2023-01-09T12:09:33.360Z,8.30
2023-01-09T12:10:33.368Z,7.30
2023-01-09T12:11:33.322Z,7.70
2023-01-09T12:12:33.349Z,6.00
2023-01-09T12:13:33.297Z,6.70
2023-01-09T12:14:33.357Z,5.00
2023-01-09T12:15:33.358Z,6.70
2023-01-09T12:16:33.385Z,7.10
2023-01-09T12:17:33.258Z,6.10
2023-01-09T12:18:33.242Z,7.70
2023-01-09T12:19:33.249Z,7.30
2023-01-09T12:20:33.219Z,6.70
2023-01-09T12:21:33.200Z,6.10
2023-01-09T12:22:33.243Z,6.60
2023-01-09T12:23:33.180Z,8.00
2023-01-09T12:24:33.175Z,9.10
2023-01-09T12:25:33.161Z,7.40
2023-01-09T12:26:33.156Z,9.30
2023-01-09T12:27:33.139Z,7.10
2023-01-09T12:28:33.165Z,7.80
2023-01-09T12:29:33.173Z,7.90
2023-01-09T12:30:33.110Z,8.40
2023-01-09T12:31:34.859Z,8.40
2023-01-09T12:32:33.098Z,5.80
2023-01-09T12:33:33.065Z,6.60
2023-01-09T12:34:33.094Z,9.40
2023-01-09T12:35:33.068Z,7.40
2023-01-09T12:36:33.056Z,7.80
2023-01-09T12:37:33.042Z,9.70
2023-01-09T12:38:33.021Z,10.40
2023-01-09T12:39:33.000Z,7.60
2023-01-09T12:40:33.053Z,8.80
2023-01-09T12:41:32.977Z,9.10
2023-01-09T12:42:32.992Z,8.40
2023-01-09T12:43:32.955Z,7.50
2023-01-09T12:44:36.011Z,10.10
2023-01-09T12:45:32.987Z,9.20
2023-01-09T12:46:32.950Z,9.30
2023-01-09T12:47:32.914Z,8.80
2023-01-09T12:48:32.902Z,9.30
2023-01-09T12:49:32.889Z,7.80
2023-01-09T12:50:32.876Z,7.10
2023-01-09T12:51:32.956Z,9.60
2023-01-09T12:52:32.951Z,7.90
2023-01-09T12:53:32.860Z,9.20
2023-01-09T12:54:32.833Z,8.80
2023-01-09T12:55:32.845Z,8.30
2023-01-09T12:56:32.808Z,6.40
2023-01-09T12:57:32.798Z,7.50
2023-01-09T12:58:32.815Z,7.90
2023-01-09T12:59:32.772Z,7.60
2023-01-09T13:00:32.754Z,7.20
2023-01-09T13:01:32.777Z,10.10
2023-01-09T13:02:32.848Z,8.80
2023-01-09T13:03:32.734Z,7.80
2023-01-09T13:04:32.802Z,8.90
2023-01-09T13:05:32.711Z,7.10
2023-01-09T13:06:32.690Z,7.90
2023-01-09T13:07:32.693Z,7.80